createdAt,value
2023-04-09T00:01:58.946Z,90935.31
2023-04-09T00:04:43.783Z,90932.59
2023-04-09T00:07:28.863Z,90933.78
2023-04-09T00:10:13.647Z,90926.88
2023-04-09T00:12:58.321Z,90928.09
2023-04-09T00:15:43.130Z,90928.63
2023-04-09T00:18:27.941Z,90930.59
2023-04-09T00:21:12.846Z,90923.63
2023-04-09T00:23:57.739Z,90921.63
2023-04-09T00:26:42.624Z,90927.78
2023-04-09T00:29:27.488Z,90936.47
2023-04-09T00:32:12.325Z,90931.22
2023-04-09T00:34:57.021Z,90937.41
2023-04-09T00:37:42.071Z,90929.50
2023-04-09T00:40:26.808Z,90934.00
2023-04-09T00:43:11.677Z,90930.03
2023-04-09T00:45:56.585Z,90934.22
2023-04-09T00:48:41.608Z,90937.41
2023-04-09T00:51:26.461Z,90932.22
2023-04-09T00:54:11.322Z,90936.94
2023-04-09T00:56:56.288Z,90932.94
2023-04-09T01:02:29.556Z,90936.94
2023-04-09T01:05:14.155Z,90929.50
2023-04-09T01:07:59.044Z,90932.94
2023-04-09T01:10:43.885Z,90928.69
2023-04-09T01:13:28.576Z,90932.38
2023-04-09T01:16:13.352Z,90924.19
2023-04-09T01:18:58.315Z,90935.53
2023-04-09T01:21:43.392Z,90930.78
2023-04-09T01:24:27.918Z,90931.78
2023-04-09T01:27:13.012Z,90940.94
2023-04-09T01:29:57.924Z,90928.59
2023-04-09T01:32:42.840Z,90928.16
2023-04-09T01:35:27.881Z,90925.44
2023-04-09T01:38:12.928Z,90926.72
2023-04-09T01:40:57.842Z,90929.19
2023-04-09T01:43:42.633Z,90932.34
2023-04-09T01:46:27.557Z,90920.72
2023-04-09T01:49:12.339Z,90924.66
2023-04-09T01:51:57.315Z,90926.88
2023-04-09T01:54:42.160Z,90927.91
2023-04-09T01:57:27.144Z,90926.38
2023-04-09T02:00:12.181Z,90924.91
2023-04-09T02:02:57.235Z,90924.66
2023-04-09T02:05:42.208Z,90932.81
2023-04-09T02:08:27.128Z,90929.81
2023-04-09T02:11:12.156Z,90933.78
2023-04-09T02:13:56.702Z,90935.53
2023-04-09T02:16:41.764Z,90932.53
2023-04-09T02:19:26.638Z,90929.56
2023-04-09T02:22:11.581Z,90922.38
2023-04-09T02:24:56.526Z,90928.31
2023-04-09T02:27:41.522Z,90924.38
2023-04-09T02:30:26.466Z,90931.06
2023-04-09T02:33:11.416Z,90932.97
2023-04-09T02:35:55.983Z,90930.72
2023-04-09T02:38:40.840Z,90930.72
2023-04-09T02:41:25.778Z,90927.47
2023-04-09T02:44:10.668Z,90935.41
2023-04-09T02:46:55.558Z,90929.41
2023-04-09T02:49:40.515Z,90935.81
2023-04-09T02:52:25.245Z,90936.34
2023-04-09T02:55:10.149Z,90934.03
2023-04-09T02:57:55.109Z,90928.06
2023-04-09T03:00:40.059Z,90929.53
2023-04-09T03:03:24.799Z,90934.56
2023-04-09T03:06:09.766Z,90932.63
2023-04-09T03:08:54.927Z,90925.66
2023-04-09T03:11:39.799Z,90928.63
2023-04-09T03:14:24.759Z,90933.06
2023-04-09T03:17:09.404Z,90925.19
2023-04-09T03:19:54.535Z,90929.16
2023-04-09T03:22:39.432Z,90921.44
2023-04-09T03:25:24.220Z,90918.91
2023-04-09T03:28:08.989Z,90919.38
2023-04-09T03:30:53.608Z,90929.16
2023-04-09T03:33:38.502Z,90928.22
2023-04-09T03:36:23.484Z,90918.72
2023-04-09T03:39:08.124Z,90926.75
2023-04-09T03:41:53.171Z,90918.06
2023-04-09T03:44:38.024Z,90921.78
2023-04-09T03:47:22.944Z,90924.16
2023-04-09T03:50:07.964Z,90919.19
2023-04-09T03:52:52.851Z,90924.38
2023-04-09T03:55:37.782Z,90924.91
2023-04-09T03:58:22.722Z,90919.84
2023-04-09T04:01:07.612Z,90926.78
2023-04-09T04:03:52.624Z,90924.00
2023-04-09T04:06:37.526Z,90932.72
2023-04-09T04:09:22.441Z,90936.13
2023-04-09T04:12:07.276Z,90933.88
2023-04-09T04:14:52.479Z,90935.19
2023-04-09T04:17:37.421Z,90931.50
2023-04-09T04:20:22.411Z,90933.47
2023-04-09T04:23:07.207Z,90932.66
2023-04-09T04:25:52.117Z,90936.09
2023-04-09T04:28:37.052Z,90933.09
2023-04-09T04:31:22.004Z,90936.03
2023-04-09T04:34:07.094Z,90934.31
2023-04-09T04:36:51.758Z,90933.03
2023-04-09T04:39:36.668Z,90932.28
2023-04-09T04:42:21.560Z,90942.38
2023-04-09T04:45:06.497Z,90934.75
2023-04-09T04:47:51.260Z,90939.59
2023-04-09T04:50:36.098Z,90944.06
2023-04-09T04:53:20.951Z,90938.06
2023-04-09T04:56:05.899Z,90947.25
2023-04-09T04:58:50.995Z,90949.03
2023-04-09T05:01:36.317Z,90951.13
2023-04-09T05:04:21.105Z,90950.38
2023-04-09T05:07:05.723Z,90954.41
2023-04-09T05:09:50.582Z,90952.63
2023-04-09T05:12:35.477Z,90957.72
2023-04-09T05:15:20.549Z,90957.91
2023-04-09T05:18:05.436Z,90956.38
2023-04-09T05:20:50.244Z,90959.63
2023-04-09T05:23:34.948Z,90959.47
2023-04-09T05:26:19.857Z,90958.06
2023-04-09T05:29:04.976Z,90960.31
2023-04-09T05:31:49.843Z,90966.97
2023-04-09T05:34:34.854Z,90966.94
2023-04-09T05:37:19.669Z,90963.31
2023-04-09T05:40:04.668Z,90959.56
2023-04-09T05:42:49.561Z,90957.88
2023-04-09T05:45:34.516Z,90962.84
2023-04-09T05:48:19.549Z,90955.31
2023-04-09T05:51:04.397Z,90957.03
2023-04-09T05:53:49.391Z,90963.31
2023-04-09T05:56:34.506Z,90953.66
2023-04-09T05:59:19.484Z,90958.63
2023-04-09T06:02:04.344Z,90960.59
2023-04-09T06:04:49.217Z,90957.88
2023-04-09T06:07:34.104Z,90962.34
2023-04-09T06:10:19.216Z,90959.56
2023-04-09T06:13:03.844Z,90952.69
2023-04-09T06:15:48.782Z,90949.03
2023-04-09T06:18:33.548Z,90956.03
2023-04-09T06:21:18.367Z,90950.47
2023-04-09T06:24:03.432Z,90962.56
2023-04-09T06:26:48.161Z,90955.41
2023-04-09T06:29:33.107Z,90958.75
2023-04-09T06:32:17.910Z,90966.06
2023-04-09T06:35:03.027Z,90959.44
2023-04-09T06:37:47.929Z,90962.53
2023-04-09T06:40:32.836Z,90961.03
2023-04-09T06:43:17.778Z,90957.56
2023-04-09T06:46:02.432Z,90966.69
2023-04-09T06:48:49.790Z,90972.97
2023-04-09T06:51:34.706Z,90970.03
2023-04-09T06:54:19.488Z,90974.44
2023-04-09T06:57:04.544Z,90982.22
2023-04-09T06:59:49.402Z,90975.63
2023-04-09T07:02:34.642Z,90979.19
2023-04-09T07:05:19.767Z,90976.66
2023-04-09T07:08:04.699Z,90982.13
2023-04-09T07:10:49.418Z,90970.78
2023-04-09T07:13:34.340Z,90965.09
2023-04-09T07:16:19.238Z,90976.53
2023-04-09T07:19:04.151Z,90968.63
2023-04-09T07:21:49.245Z,90963.63
2023-04-09T07:24:34.225Z,90963.38
2023-04-09T07:27:19.241Z,90955.19
2023-04-09T07:30:04.064Z,90959.91
2023-04-09T07:32:49.233Z,90964.66
2023-04-09T07:35:33.906Z,90968.56
2023-04-09T07:38:18.852Z,90965.59
2023-04-09T07:41:03.654Z,90973.09
2023-04-09T07:43:48.439Z,90971.03
2023-04-09T07:46:33.582Z,90971.75
2023-04-09T07:49:18.035Z,90971.56
2023-04-09T07:52:02.914Z,90972.06
2023-04-09T07:54:47.993Z,90973.06
2023-04-09T07:57:32.644Z,90968.81
2023-04-09T08:00:17.512Z,90972.25
2023-04-09T08:03:02.699Z,90972.97
2023-04-09T08:05:47.605Z,90978.63
2023-04-09T08:08:32.744Z,90979.50
2023-04-09T08:11:17.740Z,90977.44
2023-04-09T08:14:02.542Z,90970.91
2023-04-09T08:16:47.788Z,90973.97
2023-04-09T08:19:32.732Z,90982.16
2023-04-09T08:22:17.926Z,90977.94
2023-04-09T08:25:03.084Z,90982.97
2023-04-09T08:27:47.908Z,90974.88
2023-04-09T08:30:32.888Z,90979.75
2023-04-09T08:33:17.768Z,90978.56
2023-04-09T08:36:03.475Z,90973.50
2023-04-09T08:38:48.583Z,90979.47
2023-04-09T08:41:33.492Z,90976.25
2023-04-09T08:44:18.411Z,90973.41
2023-04-09T08:47:03.408Z,90970.81
2023-04-09T08:49:48.514Z,90970.94
2023-04-09T08:52:33.518Z,90973.81
2023-04-09T08:55:18.656Z,90969.88
2023-04-09T08:58:03.455Z,90968.97
2023-04-09T09:00:48.044Z,90967.16
2023-04-09T09:03:32.805Z,90968.66
2023-04-09T09:06:17.699Z,90958.78
2023-04-09T09:09:02.630Z,90968.38
2023-04-09T09:11:47.622Z,90956.78
2023-04-09T09:14:32.214Z,90954.66
2023-04-09T09:17:17.063Z,90952.25
2023-04-09T09:20:01.962Z,90947.75
2023-04-09T09:22:46.828Z,90947.16
2023-04-09T09:25:31.782Z,90939.75
2023-04-09T09:28:16.682Z,90943.47
2023-04-09T09:31:01.625Z,90944.13
2023-04-09T09:33:46.803Z,90943.84
2023-04-09T09:36:31.856Z,90940.28
2023-04-09T09:39:16.983Z,90931.97
2023-04-09T09:42:02.006Z,90931.44
2023-04-09T09:44:46.767Z,90935.69
2023-04-09T09:47:31.540Z,90922.38
2023-04-09T09:50:16.482Z,90919.03
2023-04-09T09:53:01.344Z,90916.84
2023-04-09T09:55:46.054Z,90916.06
2023-04-09T09:58:30.975Z,90911.31
2023-04-09T10:01:16.156Z,90907.50
2023-04-09T10:04:00.947Z,90903.91
2023-04-09T10:06:45.991Z,90904.19
2023-04-09T10:09:30.937Z,90909.63
2023-04-09T10:12:15.845Z,90906.66
2023-04-09T10:15:00.687Z,90896.13
2023-04-09T10:17:45.699Z,90885.78
2023-04-09T10:20:30.592Z,90886.31
2023-04-09T10:23:15.357Z,90889.28
2023-04-09T10:26:00.271Z,90890.75
2023-04-09T10:28:45.191Z,90879.72
2023-04-09T10:31:30.182Z,90882.47
2023-04-09T10:34:14.985Z,90873.38
2023-04-09T10:36:59.786Z,90875.09
2023-04-09T10:39:44.676Z,90869.16
2023-04-09T10:42:29.559Z,90870.34
2023-04-09T10:45:14.643Z,90862.66
2023-04-09T10:47:59.920Z,90865.47
2023-04-09T10:50:44.643Z,90867.22
2023-04-09T10:53:29.654Z,90863.66
2023-04-09T10:56:14.619Z,90870.63
2023-04-09T10:58:59.596Z,90847.06
2023-04-09T11:01:44.668Z,90849.31
2023-04-09T11:04:29.483Z,90850.69
2023-04-09T11:07:14.368Z,90842.09
2023-04-09T11:09:59.513Z,90849.88
2023-04-09T11:12:44.306Z,90832.78
2023-04-09T11:15:29.266Z,90836.16
2023-04-09T11:18:14.323Z,90835.22
2023-04-09T11:20:59.178Z,90829.78
2023-04-09T11:23:44.167Z,90829.22
2023-04-09T11:26:29.190Z,90824.47
2023-04-09T11:29:14.329Z,90825.78
2023-04-09T11:31:58.921Z,90826.94
2023-04-09T11:34:43.930Z,90824.72
2023-04-09T11:37:28.574Z,90826.06
2023-04-09T11:40:13.541Z,90821.63
2023-04-09T11:42:58.432Z,90825.00
2023-04-09T11:45:43.417Z,90817.97
2023-04-09T11:48:28.464Z,90818.97
2023-04-09T11:51:13.227Z,90821.22
2023-04-09T11:53:58.158Z,90814.75
2023-04-09T11:56:42.907Z,90807.59
2023-04-09T11:59:27.845Z,90807.53
2023-04-09T12:02:12.829Z,90812.53
2023-04-09T12:04:58.042Z,90809.44
2023-04-09T12:07:48.902Z,90804.03
2023-04-09T12:10:40.676Z,90801.69
2023-04-09T12:13:25.707Z,90806.16
2023-04-09T12:16:10.716Z,90797.88
2023-04-09T12:18:55.532Z,90799.91
2023-04-09T12:21:40.191Z,90793.94
2023-04-09T12:24:25.132Z,90794.59
2023-04-09T12:27:10.085Z,90790.38
2023-04-09T12:29:55.229Z,90793.69
2023-04-09T12:32:40.085Z,90787.63
2023-04-09T12:35:25.010Z,90797.41
2023-04-09T12:38:09.963Z,90792.91
2023-04-09T12:40:54.922Z,90790.28
2023-04-09T12:43:39.757Z,90795.78
2023-04-09T12:46:24.422Z,90788.06
2023-04-09T12:49:09.389Z,90796.63
2023-04-09T12:51:54.167Z,90785.69
2023-04-09T12:54:39.330Z,90788.47
2023-04-09T12:57:24.208Z,90785.44
2023-04-09T13:00:09.145Z,90786.66
2023-04-09T13:02:54.182Z,90783.28
2023-04-09T13:05:38.982Z,90780.81
2023-04-09T13:08:23.930Z,90786.25
2023-04-09T13:11:08.867Z,90778.13
2023-04-09T13:13:54.286Z,90777.97
2023-04-09T13:16:39.296Z,90777.84
2023-04-09T13:19:24.171Z,90770.50
2023-04-09T13:22:09.077Z,90770.09
2023-04-09T13:24:53.961Z,90757.91
2023-04-09T13:27:38.880Z,90763.81
2023-04-09T13:30:23.819Z,90752.19
2023-04-09T13:33:08.748Z,90752.72
2023-04-09T13:35:56.909Z,90758.38
2023-04-09T13:38:45.625Z,90750.69
2023-04-09T13:41:31.882Z,90747.66
2023-04-09T13:44:16.908Z,90744.00
2023-04-09T13:47:01.804Z,90755.38
2023-04-09T13:49:46.801Z,90740.84
2023-04-09T13:52:31.679Z,90740.47
2023-04-09T13:55:16.708Z,90737.50
2023-04-09T13:58:01.713Z,90729.56
2023-04-09T14:00:46.535Z,90738.03
2023-04-09T14:03:31.578Z,90733.97
2023-04-09T14:06:16.371Z,90732.94
2023-04-09T14:09:01.278Z,90734.31
2023-04-09T14:11:46.194Z,90736.69
2023-04-09T14:14:31.228Z,90726.06
2023-04-09T14:17:16.243Z,90734.09
2023-04-09T14:20:01.372Z,90733.06
2023-04-09T14:22:46.228Z,90726.81
2023-04-09T14:25:31.141Z,90732.31
2023-04-09T14:28:16.102Z,90734.16
2023-04-09T14:31:00.773Z,90735.06
2023-04-09T14:33:45.531Z,90731.25
2023-04-09T14:36:30.452Z,90727.56
2023-04-09T14:39:15.458Z,90720.03
2023-04-09T14:42:00.252Z,90724.44
2023-04-09T14:44:45.352Z,90726.66
2023-04-09T14:47:29.993Z,90724.44
2023-04-09T14:50:15.029Z,90719.25
2023-04-09T14:52:59.800Z,90716.69
2023-04-09T14:55:44.709Z,90722.59
2023-04-09T14:58:29.689Z,90723.31
2023-04-09T15:01:14.484Z,90727.94
2023-04-09T15:03:59.486Z,90723.81
2023-04-09T15:06:44.322Z,90724.78
2023-04-09T15:09:28.877Z,90718.28
2023-04-09T15:12:13.985Z,90724.94
2023-04-09T15:14:58.765Z,90731.09
2023-04-09T15:17:43.547Z,90729.63
2023-04-09T15:20:28.563Z,90723.72
2023-04-09T15:23:13.528Z,90730.16
2023-04-09T15:25:58.428Z,90725.19
2023-04-09T15:28:43.355Z,90729.06
2023-04-09T15:31:28.381Z,90729.06
2023-04-09T15:34:13.368Z,90732.19
2023-04-09T15:36:58.292Z,90725.00
2023-04-09T15:39:43.257Z,90725.53
2023-04-09T15:42:28.002Z,90727.97
2023-04-09T15:45:12.929Z,90722.59
2023-04-09T15:47:57.770Z,90724.97
2023-04-09T15:50:42.692Z,90726.84
2023-04-09T15:53:27.364Z,90727.34
2023-04-09T15:56:12.439Z,90727.75
2023-04-09T15:58:57.119Z,90726.06
2023-04-09T16:01:42.085Z,90727.56
2023-04-09T16:04:27.160Z,90731.97
2023-04-09T16:07:11.928Z,90729.84
2023-04-09T16:09:56.805Z,90731.03
2023-04-09T16:12:41.557Z,90727.41
2023-04-09T16:15:26.479Z,90732.31
2023-04-09T16:18:11.337Z,90734.97
2023-04-09T16:20:56.277Z,90737.75
2023-04-09T16:23:41.178Z,90744.94
2023-04-09T16:26:26.034Z,90739.22
2023-04-09T16:29:11.086Z,90746.84
2023-04-09T16:31:56.122Z,90747.25
2023-04-09T16:34:41.095Z,90751.09
2023-04-09T16:37:25.951Z,90752.34
2023-04-09T16:40:11.044Z,90749.66
2023-04-09T16:42:55.631Z,90750.94
2023-04-09T16:45:40.608Z,90751.09
2023-04-09T16:48:25.654Z,90755.88
2023-04-09T16:51:10.445Z,90752.94
2023-04-09T16:53:55.404Z,90752.00
2023-04-09T16:56:40.364Z,90758.03
2023-04-09T16:59:25.099Z,90758.16
2023-04-09T17:02:09.994Z,90750.75
2023-04-09T17:04:54.862Z,90758.69
2023-04-09T17:07:39.684Z,90766.78
2023-04-09T17:10:24.568Z,90769.09
2023-04-09T17:13:09.483Z,90770.19
2023-04-09T17:15:54.341Z,90773.84
2023-04-09T17:18:39.256Z,90775.63
2023-04-09T17:21:24.319Z,90778.69
2023-04-09T17:24:09.330Z,90783.97
2023-04-09T17:26:54.082Z,90786.84
2023-04-09T17:29:38.864Z,90786.31
2023-04-09T17:32:23.698Z,90784.84
2023-04-09T17:35:08.748Z,90791.78
2023-04-09T17:37:53.435Z,90791.13
2023-04-09T17:40:38.356Z,90795.84
2023-04-09T17:43:23.310Z,90793.94
2023-04-09T17:46:08.208Z,90795.88
2023-04-09T17:48:53.313Z,90799.75
2023-04-09T17:51:38.051Z,90807.22
2023-04-09T17:54:22.912Z,90807.22
2023-04-09T17:57:07.785Z,90811.28
2023-04-09T17:59:52.837Z,90809.66
2023-04-09T18:02:38.336Z,90824.78
2023-04-09T18:05:23.552Z,90819.81
2023-04-09T18:08:08.852Z,90821.94
2023-04-09T18:11:01.662Z,90833.50
2023-04-09T18:13:56.270Z,90823.13
2023-04-09T18:16:41.184Z,90829.38
2023-04-09T18:19:26.011Z,90834.38
2023-04-09T18:22:10.930Z,90843.03
2023-04-09T18:24:55.929Z,90842.41
2023-04-09T18:27:40.934Z,90848.97
2023-04-09T18:30:25.898Z,90854.47
2023-04-09T18:33:10.898Z,90863.13
2023-04-09T18:35:55.779Z,90873.00
2023-04-09T18:38:40.660Z,90870.31
2023-04-09T18:41:25.338Z,90880.88
2023-04-09T18:44:10.018Z,90883.97
2023-04-09T18:46:55.168Z,90884.13
2023-04-09T18:49:39.861Z,90886.28
2023-04-09T18:52:24.796Z,90892.78
2023-04-09T18:55:09.558Z,90899.31
2023-04-09T18:57:54.524Z,90900.78
2023-04-09T19:00:39.351Z,90904.47
2023-04-09T19:03:24.371Z,90910.53
2023-04-09T19:06:09.155Z,90916.44
2023-04-09T19:08:54.191Z,90922.22
2023-04-09T19:11:39.039Z,90917.31
2023-04-09T19:14:23.776Z,90919.84
2023-04-09T19:17:08.879Z,90919.75
2023-04-09T19:19:53.745Z,90922.38
2023-04-09T19:22:38.645Z,90930.38
2023-04-09T19:25:23.603Z,90929.25
2023-04-09T19:28:08.443Z,90939.97
2023-04-09T19:30:53.022Z,90936.22
2023-04-09T19:33:37.896Z,90944.63
2023-04-09T19:36:22.820Z,90946.88
2023-04-09T19:39:07.633Z,90942.13
2023-04-09T19:41:52.602Z,90954.59
2023-04-09T19:44:37.254Z,90957.03
2023-04-09T19:47:22.246Z,90966.78
2023-04-09T19:50:07.159Z,90957.50
2023-04-09T19:52:51.899Z,90957.97
2023-04-09T19:55:36.810Z,90963.06
2023-04-09T19:58:21.858Z,90965.06
2023-04-09T20:01:06.848Z,90965.28
2023-04-09T20:03:51.795Z,90971.81
2023-04-09T20:06:36.800Z,90971.38
2023-04-09T20:09:21.546Z,90965.72
2023-04-09T20:12:06.471Z,90969.97
2023-04-09T20:14:51.368Z,90981.81
2023-04-09T20:17:36.432Z,90971.88
2023-04-09T20:20:21.225Z,90974.94
2023-04-09T20:23:06.153Z,90977.72
2023-04-09T20:25:51.008Z,90981.50
2023-04-09T20:28:36.070Z,90985.47
2023-04-09T20:31:20.819Z,90974.81
2023-04-09T20:34:05.461Z,90980.28
2023-04-09T20:36:50.190Z,90976.09
2023-04-09T20:39:34.835Z,90973.56
2023-04-09T20:42:19.552Z,90975.34
2023-04-09T20:45:04.336Z,90975.81
2023-04-09T20:47:49.268Z,90985.38
2023-04-09T20:50:34.058Z,90981.19
2023-04-09T20:53:18.900Z,90982.44
2023-04-09T20:56:03.864Z,90982.47
2023-04-09T20:58:48.860Z,90985.72
2023-04-09T21:01:34.003Z,90980.06
2023-04-09T21:04:18.983Z,90987.56
2023-04-09T21:07:03.851Z,90986.88
2023-04-09T21:09:48.745Z,90984.41
2023-04-09T21:12:33.682Z,90983.16
2023-04-09T21:15:18.528Z,90986.16
2023-04-09T21:18:03.382Z,90976.72
2023-04-09T21:20:48.171Z,90990.41
2023-04-09T21:23:33.250Z,90989.22
2023-04-09T21:26:18.169Z,90991.22
2023-04-09T21:29:02.970Z,90990.75
2023-04-09T21:31:47.836Z,90987.97
2023-04-09T21:34:32.618Z,90989.78
2023-04-09T21:37:17.576Z,90980.56
2023-04-09T21:40:02.377Z,90983.03
2023-04-09T21:42:47.376Z,90988.53
2023-04-09T21:45:32.407Z,90994.50
2023-04-09T21:48:17.316Z,90996.28
2023-04-09T21:51:02.360Z,90993.56
2023-04-09T21:53:47.268Z,91005.56
2023-04-09T21:56:31.994Z,91005.56
2023-04-09T21:59:16.763Z,91003.59
2023-04-09T22:02:01.770Z,91009.31
2023-04-09T22:04:46.580Z,91004.09
2023-04-09T22:07:31.460Z,91014.81
2023-04-09T22:10:16.478Z,91010.59
2023-04-09T22:13:01.404Z,91001.41
2023-04-09T22:15:46.195Z,91008.84
2023-04-09T22:18:30.998Z,90999.38
2023-04-09T22:21:15.872Z,91003.88
2023-04-09T22:24:00.716Z,91005.13
2023-04-09T22:26:45.680Z,91007.34
2023-04-09T22:29:30.391Z,91003.88
2023-04-09T22:32:15.370Z,91016.09
2023-04-09T22:35:00.326Z,91011.09
2023-04-09T22:37:45.186Z,91007.88
2023-04-09T22:40:30.013Z,91010.38
2023-04-09T22:43:14.880Z,91008.13
2023-04-09T22:45:59.795Z,91015.59
2023-04-09T22:48:45.210Z,91010.84
2023-04-09T22:51:30.118Z,91016.09
2023-04-09T22:54:15.083Z,91014.09
2023-04-09T22:56:59.994Z,91019.34
2023-04-09T22:59:44.891Z,91017.59
2023-04-09T23:02:29.721Z,91023.84
2023-04-09T23:05:14.631Z,91023.59
2023-04-09T23:07:59.450Z,91026.56
2023-04-09T23:10:43.992Z,91021.84
2023-04-09T23:13:28.839Z,91024.09
2023-04-09T23:16:13.712Z,91022.84
2023-04-09T23:18:58.676Z,91029.81
2023-04-09T23:21:43.845Z,91028.81
2023-04-09T23:24:28.655Z,91029.31
2023-04-09T23:27:13.423Z,91024.31
2023-04-09T23:29:58.464Z,91031.56
2023-04-09T23:32:43.337Z,91029.78
2023-04-09T23:35:28.264Z,91025.59
2023-04-09T23:38:13.163Z,91029.56
2023-04-09T23:40:58.200Z,91023.59
2023-04-09T23:43:42.769Z,91021.59
2023-04-09T23:46:27.947Z,91027.81
2023-04-09T23:49:12.749Z,91021.09
2023-04-09T23:51:57.526Z,91025.59
2023-04-09T23:54:42.428Z,91015.38
2023-04-09T23:57:27.351Z,91028.81
